sensor_id;sensor_type;location;lat;lon;timestamp;pressure;altitude;pressure_sealevel;temperature;humidity
15444;BME280;7822;48.146;11.576;2024-01-15T00:01:42;93790.22;;;13.59;45.59
15444;BME280;7822;48.146;11.576;2024-01-15T00:04:10;93799.00;;;13.58;45.11
15444;BME280;7822;48.146;11.576;2024-01-15T00:06:38;93780.75;;;13.58;45.18
15444;BME280;7822;48.146;11.576;2024-01-15T00:09:06;93780.94;;;13.57;45.20
15444;BME280;7822;48.146;11.576;2024-01-15T00:11:34;93783.56;;;13.57;45.15
15444;BME280;7822;48.146;11.576;2024-01-15T00:14:02;93785.34;;;13.56;45.57
15444;BME280;7822;48.146;11.576;2024-01-15T00:16:30;93793.16;;;13.56;45.20
15444;BME280;7822;48.146;11.576;2024-01-15T00:18:57;93794.13;;;13.55;44.98
15444;BME280;7822;48.146;11.576;2024-01-15T00:21:25;93789.75;;;13.56;45.00
15444;BME280;7822;48.146;11.576;2024-01-15T00:23:53;93786.31;;;13.55;45.13
15444;BME280;7822;48.146;11.576;2024-01-15T00:26:21;93783.91;;;13.54;45.25
15444;BME280;7822;48.146;11.576;2024-01-15T00:28:50;93792.53;;;13.54;45.40
15444;BME280;7822;48.146;11.576;2024-01-15T00:31:17;93800.50;;;13.53;45.29
15444;BME280;7822;48.146;11.576;2024-01-15T00:33:46;93798.72;;;13.53;45.02
15444;BME280;7822;48.146;11.576;2024-01-15T00:36:14;93786.69;;;13.52;45.36
15444;BME280;7822;48.146;11.576;2024-01-15T00:38:43;93799.72;;;13.52;44.98
15444;BME280;7822;48.146;11.576;2024-01-15T00:41:11;93802.31;;;13.52;44.55
15444;BME280;7822;48.146;11.576;2024-01-15T00:43:39;93798.09;;;13.51;44.54
15444;BME280;7822;48.146;11.576;2024-01-15T00:46:08;93811.91;;;13.52;44.17
15444;BME280;7822;48.146;11.576;2024-01-15T00:48:35;93799.09;;;13.50;44.09
15444;BME280;7822;48.146;11.576;2024-01-15T00:51:03;93810.28;;;13.51;43.81
15444;BME280;7822;48.146;11.576;2024-01-15T00:53:31;93819.09;;;13.50;43.56
15444;BME280;7822;48.146;11.576;2024-01-15T00:55:59;93825.28;;;13.49;43.63
15444;BME280;7822;48.146;11.576;2024-01-15T00:58:26;93833.09;;;13.49;43.60
15444;BME280;7822;48.146;11.576;2024-01-15T01:00:54;93828.72;;;13.49;43.35
15444;BME280;7822;48.146;11.576;2024-01-15T01:03:24;93829.88;;;13.47;43.36
15444;BME280;7822;48.146;11.576;2024-01-15T01:05:51;93827.25;;;13.47;43.23
15444;BME280;7822;48.146;11.576;2024-01-15T01:08:19;93833.28;;;13.47;43.14
15444;BME280;7822;48.146;11.576;2024-01-15T01:10:47;93840.47;;;13.45;43.01
15444;BME280;7822;48.146;11.576;2024-01-15T01:13:14;93835.44;;;13.44;42.92
15444;BME280;7822;48.146;11.576;2024-01-15T01:15:42;93838.84;;;13.44;42.73
15444;BME280;7822;48.146;11.576;2024-01-15T01:18:09;93826.63;;;13.45;42.75
15444;BME280;7822;48.146;11.576;2024-01-15T01:20:38;93836.22;;;13.44;42.99
15444;BME280;7822;48.146;11.576;2024-01-15T01:23:06;93830.38;;;13.42;42.95
15444;BME280;7822;48.146;11.576;2024-01-15T01:25:34;93844.41;;;13.41;42.66
15444;BME280;7822;48.146;11.576;2024-01-15T01:28:01;93831.53;;;13.39;42.39
15444;BME280;7822;48.146;11.576;2024-01-15T01:30:29;93838.38;;;13.41;42.36
15444;BME280;7822;48.146;11.576;2024-01-15T01:32:56;93848.97;;;13.39;42.07
15444;BME280;7822;48.146;11.576;2024-01-15T01:35:24;93842.97;;;13.38;42.17
15444;BME280;7822;48.146;11.576;2024-01-15T01:37:53;93843.94;;;13.37;42.28
15444;BME280;7822;48.146;11.576;2024-01-15T01:40:21;93847.53;;;13.36;42.04
15444;BME280;7822;48.146;11.576;2024-01-15T01:42:48;93848.34;;;13.37;41.88
15444;BME280;7822;48.146;11.576;2024-01-15T01:45:16;93856.16;;;13.37;42.30
15444;BME280;7822;48.146;11.576;2024-01-15T01:47:43;93853.72;;;13.35;42.19
15444;BME280;7822;48.146;11.576;2024-01-15T01:50:11;93854.72;;;13.34;41.81
15444;BME280;7822;48.146;11.576;2024-01-15T01:52:39;93853.88;;;13.34;41.78
15444;BME280;7822;48.146;11.576;2024-01-15T01:55:09;93853.88;;;13.34;41.82
15444;BME280;7822;48.146;11.576;2024-01-15T01:57:37;93858.28;;;13.33;41.63
15444;BME280;7822;48.146;11.576;2024-01-15T02:00:06;93863.66;;;13.32;41.35
15444;BME280;7822;48.146;11.576;2024-01-15T02:02:34;93870.50;;;13.33;41.56
15444;BME280;7822;48.146;11.576;2024-01-15T02:05:01;93867.09;;;13.32;41.96
15444;BME280;7822;48.146;11.576;2024-01-15T02:07:31;93865.28;;;13.33;41.90
15444;BME280;7822;48.146;11.576;2024-01-15T02:09:59;93869.69;;;13.32;42.09
15444;BME280;7822;48.146;11.576;2024-01-15T02:12:28;93856.69;;;13.32;41.98
15444;BME280;7822;48.146;11.576;2024-01-15T02:14:56;93860.25;;;13.31;42.24
15444;BME280;7822;48.146;11.576;2024-01-15T02:17:23;93854.22;;;13.31;42.54
15444;BME280;7822;48.146;11.576;2024-01-15T02:19:51;93868.06;;;13.31;42.23
15444;BME280;7822;48.146;11.576;2024-01-15T02:22:18;93860.25;;;13.31;42.33
15444;BME280;7822;48.146;11.576;2024-01-15T02:24:47;93865.47;;;13.31;42.00
15444;BME280;7822;48.146;11.576;2024-01-15T02:27:15;93862.84;;;13.31;42.22
15444;BME280;7822;48.146;11.576;2024-01-15T02:29:43;93873.28;;;13.31;42.22
15444;BME280;7822;48.146;11.576;2024-01-15T02:32:10;93870.66;;;13.31;42.57
15444;BME280;7822;48.146;11.576;2024-01-15T02:34:38;93874.28;;;13.30;42.68
15444;BME280;7822;48.146;11.576;2024-01-15T02:37:06;93882.72;;;13.32;42.80
15444;BME280;7822;48.146;11.576;2024-01-15T02:39:33;93881.09;;;13.31;42.71
15444;BME280;7822;48.146;11.576;2024-01-15T02:42:02;93885.31;;;13.32;42.57
15444;BME280;7822;48.146;11.576;2024-01-15T02:44:30;93880.13;;;13.32;42.85
15444;BME280;7822;48.146;11.576;2024-01-15T02:46:57;93888.72;;;13.33;42.36
15444;BME280;7822;48.146;11.576;2024-01-15T02:49:25;93894.75;;;13.33;42.81
15444;BME280;7822;48.146;11.576;2024-01-15T02:51:52;93905.16;;;13.33;42.90
15444;BME280;7822;48.146;11.576;2024-01-15T02:54:20;93905.16;;;13.33;43.16
15444;BME280;7822;48.146;11.576;2024-01-15T02:56:48;93905.16;;;13.33;43.16
15444;BME280;7822;48.146;11.576;2024-01-15T02:59:17;93900.78;;;13.34;43.13
15444;BME280;7822;48.146;11.576;2024-01-15T03:01:44;93902.38;;;13.35;43.25
15444;BME280;7822;48.146;11.576;2024-01-15T03:04:12;93897.16;;;13.35;43.36
15444;BME280;7822;48.146;11.576;2024-01-15T03:06:39;93890.03;;;13.37;43.51
15444;BME280;7822;48.146;11.576;2024-01-15T03:09:07;93893.59;;;13.36;43.61
15444;BME280;7822;48.146;11.576;2024-01-15T03:11:36;93887.56;;;13.35;43.50
15444;BME280;7822;48.146;11.576;2024-01-15T03:14:04;93885.78;;;13.36;43.51
15444;BME280;7822;48.146;11.576;2024-01-15T03:16:33;93878.78;;;13.36;43.34
15444;BME280;7822;48.146;11.576;2024-01-15T03:19:01;93870.16;;;13.36;43.58
15444;BME280;7822;48.146;11.576;2024-01-15T03:21:28;93870.16;;;13.36;43.46
15444;BME280;7822;48.146;11.576;2024-01-15T03:23:56;93873.56;;;13.36;43.24
15444;BME280;7822;48.146;11.576;2024-01-15T03:26:23;93862.16;;;13.37;43.96
15444;BME280;7822;48.146;11.576;2024-01-15T03:28:51;93860.56;;;13.36;43.26
15444;BME280;7822;48.146;11.576;2024-01-15T03:31:19;93874.41;;;13.37;43.34
15444;BME280;7822;48.146;11.576;2024-01-15T03:33:48;93877.00;;;13.37;43.10
15444;BME280;7822;48.146;11.576;2024-01-15T03:36:16;93871.78;;;13.37;43.42
15444;BME280;7822;48.146;11.576;2024-01-15T03:38:43;93876.19;;;13.36;43.25
15444;BME280;7822;48.146;11.576;2024-01-15T03:41:11;93874.41;;;13.37;43.38
15444;BME280;7822;48.146;11.576;2024-01-15T03:43:37;93888.19;;;13.37;43.37
15444;BME280;7822;48.146;11.576;2024-01-15T03:46:05;93893.25;;;13.39;43.10
15444;BME280;7822;48.146;11.576;2024-01-15T03:48:33;93886.41;;;13.38;43.24
15444;BME280;7822;48.146;11.576;2024-01-15T03:51:02;93880.25;;;13.39;43.46
15444;BME280;7822;48.146;11.576;2024-01-15T03:53:30;93879.41;;;13.38;43.44
15444;BME280;7822;48.146;11.576;2024-01-15T03:55:57;93869.97;;;13.37;42.84
15444;BME280;7822;48.146;11.576;2024-01-15T03:58:25;93862.78;;;13.39;43.12
15444;BME280;7822;48.146;11.576;2024-01-15T04:00:52;93863.78;;;13.38;42.94
15444;BME280;7822;48.146;11.576;2024-01-15T04:03:20;93866.41;;;13.38;42.80
15444;BME280;7822;48.146;11.576;2024-01-15T04:05:47;93852.56;;;13.38;43.19
15444;BME280;7822;48.146;11.576;2024-01-15T04:08:16;93842.13;;;13.38;43.07
15444;BME280;7822;48.146;11.576;2024-01-15T04:10:44;93851.59;;;13.39;43.33
15444;BME280;7822;48.146;11.576;2024-01-15T04:13:11;93854.97;;;13.39;43.25
15444;BME280;7822;48.146;11.576;2024-01-15T04:15:39;93859.41;;;13.39;43.46
15444;BME280;7822;48.146;11.576;2024-01-15T04:18:06;93852.38;;;13.39;43.18
15444;BME280;7822;48.146;11.576;2024-01-15T04:20:34;93850.59;;;13.40;43.08
15444;BME280;7822;48.146;11.576;2024-01-15T04:23:02;93854.34;;;13.37;43.35
15444;BME280;7822;48.146;11.576;2024-01-15T04:25:31;93856.78;;;13.39;43.44
15444;BME280;7822;48.146;11.576;2024-01-15T04:27:58;93854.19;;;13.39;43.38
15444;BME280;7822;48.146;11.576;2024-01-15T04:30:26;93866.22;;;13.40;43.44
15444;BME280;7822;48.146;11.576;2024-01-15T04:32:53;93854.97;;;13.39;43.18
15444;BME280;7822;48.146;11.576;2024-01-15T04:35:21;93858.41;;;13.40;43.10
15444;BME280;7822;48.146;11.576;2024-01-15T04:37:48;93855.97;;;13.38;43.23
15444;BME280;7822;48.146;11.576;2024-01-15T04:40:16;93849.78;;;13.39;43.34
15444;BME280;7822;48.146;11.576;2024-01-15T04:42:45;93844.56;;;13.39;43.71
15444;BME280;7822;48.146;11.576;2024-01-15T04:45:13;93854.19;;;13.39;43.66
15444;BME280;7822;48.146;11.576;2024-01-15T04:47:40;93845.38;;;13.40;43.65
15444;BME280;7822;48.146;11.576;2024-01-15T04:50:08;93854.00;;;13.41;43.51
15444;BME280;7822;48.146;11.576;2024-01-15T04:52:36;93844.56;;;13.39;43.17
15444;BME280;7822;48.146;11.576;2024-01-15T04:55:04;93847.97;;;13.40;43.23
15444;BME280;7822;48.146;11.576;2024-01-15T04:57:31;93855.78;;;13.40;43.37
15444;BME280;7822;48.146;11.576;2024-01-15T05:00:00;93853.38;;;13.38;42.82
15444;BME280;7822;48.146;11.576;2024-01-15T05:02:29;93843.94;;;13.37;42.89
15444;BME280;7822;48.146;11.576;2024-01-15T05:04:56;93844.75;;;13.38;43.00
15444;BME280;7822;48.146;11.576;2024-01-15T05:07:24;93854.34;;;13.37;43.27
15444;BME280;7822;48.146;11.576;2024-01-15T05:09:51;93842.13;;;13.38;43.03
15444;BME280;7822;48.146;11.576;2024-01-15T05:12:19;93840.34;;;13.38;42.99
15444;BME280;7822;48.146;11.576;2024-01-15T05:14:46;93837.56;;;13.40;43.16
15444;BME280;7822;48.146;11.576;2024-01-15T05:17:15;93835.78;;;13.41;43.28
15444;BME280;7822;48.146;11.576;2024-01-15T05:19:43;93839.19;;;13.41;43.39
15444;BME280;7822;48.146;11.576;2024-01-15T05:22:11;93844.41;;;13.41;43.38
15444;BME280;7822;48.146;11.576;2024-01-15T05:24:38;93853.19;;;13.40;43.49
15444;BME280;7822;48.146;11.576;2024-01-15T05:27:06;93859.84;;;13.43;43.31
15444;BME280;7822;48.146;11.576;2024-01-15T05:29:33;93860.66;;;13.43;43.27
15444;BME280;7822;48.146;11.576;2024-01-15T05:32:01;93857.44;;;13.41;43.26
15444;BME280;7822;48.146;11.576;2024-01-15T05:34:30;93863.47;;;13.42;43.14
15444;BME280;7822;48.146;11.576;2024-01-15T05:36:57;93860.84;;;13.42;43.09
15444;BME280;7822;48.146;11.576;2024-01-15T05:39:25;93857.25;;;13.43;43.59
15444;BME280;7822;48.146;11.576;2024-01-15T05:41:52;93851.22;;;13.42;43.86
15444;BME280;7822;48.146;11.576;2024-01-15T05:44:20;93864.09;;;13.44;43.15
15444;BME280;7822;48.146;11.576;2024-01-15T05:46:47;93853.69;;;13.44;43.18
15444;BME280;7822;48.146;11.576;2024-01-15T05:49:15;93853.69;;;13.44;43.29
15444;BME280;7822;48.146;11.576;2024-01-15T05:51:44;93862.28;;;13.44;43.11
15444;BME280;7822;48.146;11.576;2024-01-15T05:54:12;93856.28;;;13.44;43.23
15444;BME280;7822;48.146;11.576;2024-01-15T05:56:39;93857.06;;;13.44;43.26
15444;BME280;7822;48.146;11.576;2024-01-15T05:59:07;93867.47;;;13.44;43.17
15444;BME280;7822;48.146;11.576;2024-01-15T06:01:38;93863.09;;;13.45;43.02
15444;BME280;7822;48.146;11.576;2024-01-15T06:04:06;93861.50;;;13.44;43.03
15444;BME280;7822;48.146;11.576;2024-01-15T06:06:33;93853.69;;;13.44;43.10
15444;BME280;7822;48.146;11.576;2024-01-15T06:09:02;93857.88;;;13.45;43.11
15444;BME280;7822;48.146;11.576;2024-01-15T06:11:31;93847.47;;;13.45;42.99
15444;BME280;7822;48.146;11.576;2024-01-15T06:13:59;93846.66;;;13.44;43.15
15444;BME280;7822;48.146;11.576;2024-01-15T06:16:28;93848.47;;;13.44;43.15
15444;BME280;7822;48.146;11.576;2024-01-15T06:18:55;93854.47;;;13.44;43.21
15444;BME280;7822;48.146;11.576;2024-01-15T06:21:23;93857.06;;;13.44;43.54
15444;BME280;7822;48.146;11.576;2024-01-15T06:23:51;93850.06;;;13.45;43.17
15444;BME280;7822;48.146;11.576;2024-01-15T06:26:20;93857.06;;;13.44;43.36
15444;BME280;7822;48.146;11.576;2024-01-15T06:28:48;93858.88;;;13.44;43.10
15444;BME280;7822;48.146;11.576;2024-01-15T06:31:16;93861.50;;;13.44;43.35
15444;BME280;7822;48.146;11.576;2024-01-15T06:33:43;93862.28;;;13.44;42.86
15444;BME280;7822;48.146;11.576;2024-01-15T06:36:14;93854.47;;;13.44;43.26
15444;BME280;7822;48.146;11.576;2024-01-15T06:38:43;93852.03;;;13.43;43.47
15444;BME280;7822;48.146;11.576;2024-01-15T06:41:10;93859.66;;;13.44;43.34
15444;BME280;7822;48.146;11.576;2024-01-15T06:43:39;93858.06;;;13.43;42.92
15444;BME280;7822;48.146;11.576;2024-01-15T06:46:06;93857.25;;;13.43;43.32
15444;BME280;7822;48.146;11.576;2024-01-15T06:48:34;93862.28;;;13.44;43.36
15444;BME280;7822;48.146;11.576;2024-01-15T06:51:02;93859.66;;;13.44;43.31
15444;BME280;7822;48.146;11.576;2024-01-15T06:53:30;93856.28;;;13.44;43.28
15444;BME280;7822;48.146;11.576;2024-01-15T06:55:57;93850.25;;;13.43;43.29
15444;BME280;7822;48.146;11.576;2024-01-15T06:58:25;93851.06;;;13.44;43.35
15444;BME280;7822;48.146;11.576;2024-01-15T07:00:54;93851.06;;;13.44;43.53
15444;BME280;7822;48.146;11.576;2024-01-15T07:03:21;93860.66;;;13.43;43.44
15444;BME280;7822;48.146;11.576;2024-01-15T07:05:49;93855.47;;;13.43;43.38
15444;BME280;7822;48.146;11.576;2024-01-15T07:08:16;93853.03;;;13.42;43.33
15444;BME280;7822;48.146;11.576;2024-01-15T07:10:44;93848.63;;;13.42;43.22
15444;BME280;7822;48.146;11.576;2024-01-15T07:13:11;93838.19;;;13.42;43.36
15444;BME280;7822;48.146;11.576;2024-01-15T07:15:39;93838.19;;;13.42;43.64
15444;BME280;7822;48.146;11.576;2024-01-15T07:18:08;93837.22;;;13.43;43.70
15444;BME280;7822;48.146;11.576;2024-01-15T07:20:36;93844.22;;;13.43;43.73
15444;BME280;7822;48.146;11.576;2024-01-15T07:23:03;93856.09;;;13.45;44.17
15444;BME280;7822;48.146;11.576;2024-01-15T07:25:31;93842.06;;;13.46;44.16
15444;BME280;7822;48.146;11.576;2024-01-15T07:27:59;93857.56;;;13.48;44.51
15444;BME280;7822;48.146;11.576;2024-01-15T07:30:26;93843.53;;;13.49;44.65
15444;BME280;7822;48.146;11.576;2024-01-15T07:32:54;93844.34;;;13.49;44.45
15444;BME280;7822;48.146;11.576;2024-01-15T07:35:23;93836.34;;;13.51;44.32
15444;BME280;7822;48.146;11.576;2024-01-15T07:37:51;93834.56;;;13.51;44.79
15444;BME280;7822;48.146;11.576;2024-01-15T07:40:18;93841.41;;;13.52;44.87
15444;BME280;7822;48.146;11.576;2024-01-15T07:42:46;93839.56;;;13.53;45.08
15444;BME280;7822;48.146;11.576;2024-01-15T07:45:14;93833.41;;;13.54;44.91
15444;BME280;7822;48.146;11.576;2024-01-15T07:47:41;93839.56;;;13.53;45.12
15444;BME280;7822;48.146;11.576;2024-01-15T07:50:09;93838.59;;;13.54;45.27
15444;BME280;7822;48.146;11.576;2024-01-15T07:52:38;93839.44;;;13.54;45.25
15444;BME280;7822;48.146;11.576;2024-01-15T07:55:06;93844.63;;;13.54;45.13
15444;BME280;7822;48.146;11.576;2024-01-15T07:57:34;93840.25;;;13.55;45.49
15444;BME280;7822;48.146;11.576;2024-01-15T08:00:02;93835.81;;;13.55;45.53
15444;BME280;7822;48.146;11.576;2024-01-15T08:02:31;93823.78;;;13.54;45.49
15444;BME280;7822;48.146;11.576;2024-01-15T08:05:03;93844.44;;;13.56;45.81
15444;BME280;7822;48.146;11.576;2024-01-15T08:07:30;93836.63;;;13.56;45.91
15444;BME280;7822;48.146;11.576;2024-01-15T08:09:59;93822.78;;;13.55;46.00
15444;BME280;7822;48.146;11.576;2024-01-15T08:12:27;93827.84;;;13.57;45.93
15444;BME280;7822;48.146;11.576;2024-01-15T08:14:54;93825.25;;;13.57;45.93
15444;BME280;7822;48.146;11.576;2024-01-15T08:17:22;93807.78;;;13.57;45.87
15444;BME280;7822;48.146;11.576;2024-01-15T08:19:49;93823.59;;;13.56;46.26
15444;BME280;7822;48.146;11.576;2024-01-15T08:22:17;93827.84;;;13.57;45.99
15444;BME280;7822;48.146;11.576;2024-01-15T08:24:45;93820.81;;;13.57;46.32
15444;BME280;7822;48.146;11.576;2024-01-15T08:27:14;93815.59;;;13.57;46.30
15444;BME280;7822;48.146;11.576;2024-01-15T08:29:41;93820.81;;;13.57;46.15
15444;BME280;7822;48.146;11.576;2024-01-15T08:32:09;93809.63;;;13.57;46.37
15444;BME280;7822;48.146;11.576;2024-01-15T08:34:40;93815.59;;;13.57;46.60
15444;BME280;7822;48.146;11.576;2024-01-15T08:37:08;93814.81;;;13.57;46.42
15444;BME280;7822;48.146;11.576;2024-01-15T08:39:37;93826.03;;;13.57;46.64
15444;BME280;7822;48.146;11.576;2024-01-15T08:42:05;93824.44;;;13.56;46.64
15444;BME280;7822;48.146;11.576;2024-01-15T08:44:34;93825.06;;;13.58;46.74
15444;BME280;7822;48.146;11.576;2024-01-15T08:47:01;93823.44;;;13.57;46.59
15444;BME280;7822;48.146;11.576;2024-01-15T08:49:29;93832.06;;;13.58;46.75
15444;BME280;7822;48.146;11.576;2024-01-15T08:51:57;93825.06;;;13.58;46.60
15444;BME280;7822;48.146;11.576;2024-01-15T08:54:24;93820.03;;;13.57;46.78
15444;BME280;7822;48.146;11.576;2024-01-15T08:56:52;93815.59;;;13.57;46.84
15444;BME280;7822;48.146;11.576;2024-01-15T08:59:19;93808.59;;;13.58;46.87
15444;BME280;7822;48.146;11.576;2024-01-15T09:01:53;93815.59;;;13.57;47.08
15444;BME280;7822;48.146;11.576;2024-01-15T09:04:23;93813.81;;;13.58;46.89
15444;BME280;7822;48.146;11.576;2024-01-15T09:06:50;93819.84;;;13.58;46.92
15444;BME280;7822;48.146;11.576;2024-01-15T09:09:18;93817.25;;;13.58;47.20
15444;BME280;7822;48.146;11.576;2024-01-15T09:11:46;93820.66;;;13.59;47.00
15444;BME280;7822;48.146;11.576;2024-01-15T09:14:13;93832.69;;;13.60;46.98
15444;BME280;7822;48.146;11.576;2024-01-15T09:16:44;93824.88;;;13.60;47.22
15444;BME280;7822;48.146;11.576;2024-01-15T09:19:13;93819.66;;;13.60;47.26
15444;BME280;7822;48.146;11.576;2024-01-15T09:21:41;93824.88;;;13.60;47.15
15444;BME280;7822;48.146;11.576;2024-01-15T09:24:09;93830.91;;;13.60;47.31
15444;BME280;7822;48.146;11.576;2024-01-15T09:26:36;93823.09;;;13.60;47.23
15444;BME280;7822;48.146;11.576;2024-01-15T09:29:04;93820.47;;;13.60;47.53
15444;BME280;7822;48.146;11.576;2024-01-15T09:31:31;93824.72;;;13.61;47.30
15444;BME280;7822;48.146;11.576;2024-01-15T09:33:59;93831.72;;;13.61;47.46
15444;BME280;7822;48.146;11.576;2024-01-15T09:36:30;93826.50;;;13.61;47.24
15444;BME280;7822;48.146;11.576;2024-01-15T09:38:57;93822.13;;;13.61;47.52
15444;BME280;7822;48.146;11.576;2024-01-15T09:41:25;93822.13;;;13.61;47.63
15444;BME280;7822;48.146;11.576;2024-01-15T09:43:52;93821.28;;;13.61;47.66
15444;BME280;7822;48.146;11.576;2024-01-15T09:46:20;93810.88;;;13.61;47.66
15444;BME280;7822;48.146;11.576;2024-01-15T09:48:48;93822.13;;;13.61;47.70
15444;BME280;7822;48.146;11.576;2024-01-15T09:51:15;93822.13;;;13.61;47.53
15444;BME280;7822;48.146;11.576;2024-01-15T09:53:44;93830.72;;;13.62;47.77
15444;BME280;7822;48.146;11.576;2024-01-15T09:56:13;93831.72;;;13.61;47.86
15444;BME280;7822;48.146;11.576;2024-01-15T09:58:40;93833.31;;;13.62;47.68
15444;BME280;7822;48.146;11.576;2024-01-15T10:01:08;93824.72;;;13.61;47.77
15444;BME280;7822;48.146;11.576;2024-01-15T10:03:37;93829.75;;;13.63;47.89
15444;BME280;7822;48.146;11.576;2024-01-15T10:06:07;93813.28;;;13.62;47.74
15444;BME280;7822;48.146;11.576;2024-01-15T10:08:36;93817.69;;;13.62;48.10
15444;BME280;7822;48.146;11.576;2024-01-15T10:11:05;93810.69;;;13.62;47.93
15444;BME280;7822;48.146;11.576;2024-01-15T10:13:32;93821.94;;;13.63;47.96
15444;BME280;7822;48.146;11.576;2024-01-15T10:16:01;93803.88;;;13.61;48.05
15444;BME280;7822;48.146;11.576;2024-01-15T10:18:29;93806.28;;;13.63;47.86
15444;BME280;7822;48.146;11.576;2024-01-15T10:20:57;93795.88;;;13.63;47.89
15444;BME280;7822;48.146;11.576;2024-01-15T10:23:25;93795.06;;;13.62;48.20
15444;BME280;7822;48.146;11.576;2024-01-15T10:25:52;93791.47;;;13.63;48.14
15444;BME280;7822;48.146;11.576;2024-01-15T10:28:21;93791.47;;;13.63;48.06
15444;BME280;7822;48.146;11.576;2024-01-15T10:30:51;93788.88;;;13.63;48.13
15444;BME280;7822;48.146;11.576;2024-01-15T10:33:21;93789.66;;;13.64;48.18
15444;BME280;7822;48.146;11.576;2024-01-15T10:35:53;93780.88;;;13.65;48.35
15444;BME280;7822;48.146;11.576;2024-01-15T10:38:20;93772.22;;;13.64;47.99
15444;BME280;7822;48.146;11.576;2024-01-15T10:40:50;93762.63;;;13.65;48.32
15444;BME280;7822;48.146;11.576;2024-01-15T10:43:18;93764.41;;;13.64;48.44
15444;BME280;7822;48.146;11.576;2024-01-15T10:45:47;93775.66;;;13.65;48.38
15444;BME280;7822;48.146;11.576;2024-01-15T10:48:16;93766.88;;;13.66;48.31
15444;BME280;7822;48.146;11.576;2024-01-15T10:50:44;93766.06;;;13.65;48.44
15444;BME280;7822;48.146;11.576;2024-01-15T10:53:12;93771.91;;;13.67;48.50
15444;BME280;7822;48.146;11.576;2024-01-15T10:55:39;93765.03;;;13.66;48.15
15444;BME280;7822;48.146;11.576;2024-01-15T10:58:08;93757.22;;;13.66;48.31
15444;BME280;7822;48.146;11.576;2024-01-15T11:00:36;93746.81;;;13.66;48.46
15444;BME280;7822;48.146;11.576;2024-01-15T11:03:06;93749.41;;;13.66;48.44
15444;BME280;7822;48.146;11.576;2024-01-15T11:05:34;93744.19;;;13.66;48.58
15444;BME280;7822;48.146;11.576;2024-01-15T11:08:05;93749.41;;;13.66;48.55
15444;BME280;7822;48.146;11.576;2024-01-15T11:10:39;93746.03;;;13.66;48.46
15444;BME280;7822;48.146;11.576;2024-01-15T11:13:09;93739.00;;;13.66;48.57
15444;BME280;7822;48.146;11.576;2024-01-15T11:15:56;93737.19;;;13.67;48.55
15444;BME280;7822;48.146;11.576;2024-01-15T11:18:25;93738.03;;;13.67;48.58
15444;BME280;7822;48.146;11.576;2024-01-15T11:23:43;93738.22;;;13.66;48.69
15444;BME280;7822;48.146;11.576;2024-01-15T11:26:29;93736.38;;;13.66;48.87
15444;BME280;7822;48.146;11.576;2024-01-15T11:28:57;93744.19;;;13.66;48.60
15444;BME280;7822;48.146;11.576;2024-01-15T11:31:29;93738.22;;;13.66;48.67
15444;BME280;7822;48.146;11.576;2024-01-15T11:33:58;93724.34;;;13.65;48.86
15444;BME280;7822;48.146;11.576;2024-01-15T11:42:04;93728.56;;;13.66;48.83
15444;BME280;7822;48.146;11.576;2024-01-15T11:44:31;93728.75;;;13.65;48.98
15444;BME280;7822;48.146;11.576;2024-01-15T11:46:59;93730.38;;;13.66;48.97
15444;BME280;7822;48.146;11.576;2024-01-15T11:49:33;93736.56;;;13.65;48.99
15444;BME280;7822;48.146;11.576;2024-01-15T11:52:08;93736.56;;;13.65;48.81
15444;BME280;7822;48.146;11.576;2024-01-15T11:54:37;93725.34;;;13.64;48.97
15444;BME280;7822;48.146;11.576;2024-01-15T11:57:07;93724.34;;;13.65;48.93
15444;BME280;7822;48.146;11.576;2024-01-15T11:59:37;93720.94;;;13.65;49.02
15444;BME280;7822;48.146;11.576;2024-01-15T12:02:04;93713.13;;;13.65;49.03
15444;BME280;7822;48.146;11.576;2024-01-15T12:04:34;93704.34;;;13.66;48.88
15444;BME280;7822;48.146;11.576;2024-01-15T12:07:01;93711.34;;;13.65;48.99
15444;BME280;7822;48.146;11.576;2024-01-15T12:09:29;93710.50;;;13.65;49.13
15444;BME280;7822;48.146;11.576;2024-01-15T12:11:57;93700.91;;;13.65;49.23
15444;BME280;7822;48.146;11.576;2024-01-15T12:14:31;93700.91;;;13.65;49.12
15444;BME280;7822;48.146;11.576;2024-01-15T12:17:00;93699.13;;;13.66;49.16
15444;BME280;7822;48.146;11.576;2024-01-15T12:19:31;93698.94;;;13.67;49.17
15444;BME280;7822;48.146;11.576;2024-01-15T12:22:00;93691.13;;;13.67;49.06
15444;BME280;7822;48.146;11.576;2024-01-15T12:24:28;93671.25;;;13.66;49.11
15444;BME280;7822;48.146;11.576;2024-01-15T12:26:56;93659.84;;;13.67;49.19
15444;BME280;7822;48.146;11.576;2024-01-15T12:29:24;93653.00;;;13.66;49.08
15444;BME280;7822;48.146;11.576;2024-01-15T12:31:52;93651.22;;;13.67;49.25
15444;BME280;7822;48.146;11.576;2024-01-15T12:34:20;93652.84;;;13.68;49.29
15444;BME280;7822;48.146;11.576;2024-01-15T12:36:48;93651.22;;;13.67;49.32
15444;BME280;7822;48.146;11.576;2024-01-15T12:39:17;93654.63;;;13.67;49.26
15444;BME280;7822;48.146;11.576;2024-01-15T12:41:45;93652.84;;;13.68;49.17
15444;BME280;7822;48.146;11.576;2024-01-15T12:44:13;93650.25;;;13.68;49.48
15444;BME280;7822;48.146;11.576;2024-01-15T12:46:40;93652.03;;;13.67;49.49
15444;BME280;7822;48.146;11.576;2024-01-15T12:49:08;93653.00;;;13.66;49.35
15444;BME280;7822;48.146;11.576;2024-01-15T12:51:36;93649.41;;;13.67;49.56
15444;BME280;7822;48.146;11.576;2024-01-15T12:54:04;93639.97;;;13.66;49.40
15444;BME280;7822;48.146;11.576;2024-01-15T12:56:32;93646.00;;;13.67;49.45
15444;BME280;7822;48.146;11.576;2024-01-15T12:59:00;93658.06;;;13.68;49.28
15444;BME280;7822;48.146;11.576;2024-01-15T13:01:27;93642.56;;;13.66;49.25
15444;BME280;7822;48.146;11.576;2024-01-15T13:03:55;93643.41;;;13.67;49.40
15444;BME280;7822;48.146;11.576;2024-01-15T13:06:23;93637.38;;;13.66;49.63
15444;BME280;7822;48.146;11.576;2024-01-15T13:08:50;93640.78;;;13.67;49.53
15444;BME280;7822;48.146;11.576;2024-01-15T13:11:18;93646.81;;;13.67;49.29
15444;BME280;7822;48.146;11.576;2024-01-15T13:13:47;93658.06;;;13.68;49.40